METAR Data
IDs: Format: Raw Decoded Include TAF

Data at: 1519 UTC 21 Sep 2018

K2W6 210108Z AUTO 13004KT 10SM BKN021 BKN033 BKN050 21/18 A3023 RMK AO1
K2W6 201048Z AUTO 00000KT 4SM BKN015 BKN023 OVC033 20/20 A3013 RMK AO1
K2W6 201028Z AUTO 00000KT 4SM SCT015 BKN023 OVC048 19/19 A3012 RMK AO1
K2W6 201008Z AUTO 00000KT 4SM SCT011 SCT020 BKN048 19/19 A3011 RMK AO1
K2W6 200948Z AUTO 00000KT 7SM BKN014 BKN022 19/19 A3010 RMK AO1
K2W6 200928Z AUTO 00000KT 3SM BKN012 BKN019 19/19 A3009 RMK AO1
K2W6 200848Z AUTO 00000KT 4SM SCT010 18/18 A3008 RMK AO1
K2W6 200808Z AUTO 00000KT 3SM SCT010 18/18 A3006 RMK AO1
K2W6 200748Z AUTO 00000KT 4SM SCT008 19/18 A3006 RMK AO1
K2W6 200728Z AUTO 00000KT 5SM SCT008 18/18 A3006 RMK AO1
K2W6 200708Z AUTO 00000KT 1 1/2SM VV007 18/18 A3006 RMK AO1 VIS 1/2V5
K2W6 200648Z AUTO 00000KT 5SM CLR 19/18 A3006 RMK AO1
K2W6 200628Z AUTO 00000KT 4SM CLR 18/18 A3006 RMK AO1
K2W6 200608Z AUTO 00000KT 7SM CLR 18/18 A3006 RMK AO1
K2W6 200548Z AUTO 00000KT 10SM CLR 18/18 A3006 RMK AO1
K2W6 200528Z AUTO 00000KT 3SM CLR 19/18 A3006 RMK AO1
K2W6 200448Z AUTO 00000KT 5SM CLR 19/18 A3006 RMK AO1
K2W6 200428Z AUTO 00000KT 7SM CLR 19/18 A3006 RMK AO1
K2W6 200408Z AUTO 00000KT 7SM CLR 19/18 A3005 RMK AO1
K2W6 200348Z AUTO 00000KT 10SM CLR 19/18 A3005 RMK AO1
K2W6 200328Z AUTO 00000KT 7SM CLR 20/19 A3005 RMK AO1